createdAt,value
2019-05-22T04:57:06.546Z,17.38
2019-05-22T04:59:39.168Z,17.23
2019-05-22T05:02:14.807Z,17.20
2019-05-22T05:04:48.192Z,17.10
2019-05-22T05:07:20.174Z,16.97
2019-05-22T05:09:51.786Z,16.89
2019-05-22T05:12:24.846Z,16.92
2019-05-22T05:14:57.633Z,16.91
2019-05-22T05:17:29.609Z,16.86
2019-05-22T05:20:01.002Z,16.89
2019-05-22T05:22:44.695Z,16.89
2019-05-22T05:25:18.521Z,16.94
2019-05-22T05:27:51.516Z,16.92
2019-05-22T05:30:23.853Z,16.85
2019-05-22T05:32:56.779Z,16.86
2019-05-22T05:35:31.180Z,16.79
2019-05-22T05:38:05.865Z,16.54
2019-05-22T05:40:40.577Z,16.65
2019-05-22T05:43:14.432Z,16.62
2019-05-22T05:45:48.090Z,16.73
2019-05-22T05:48:21.692Z,16.83
2019-05-22T05:51:15.230Z,16.65
2019-05-22T05:53:57.315Z,16.63
2019-05-22T05:56:32.668Z,16.53
2019-05-22T05:59:06.944Z,16.47
2019-05-22T06:01:40.670Z,16.17
2019-05-22T06:04:12.617Z,16.39
2019-05-22T06:06:54.067Z,16.41
2019-05-22T06:09:28.448Z,16.40
2019-05-22T06:12:05.790Z,16.40
2019-05-22T06:14:38.526Z,16.45
2019-05-22T06:17:47.767Z,16.47
2019-05-22T06:20:21.802Z,16.60
2019-05-22T06:23:26.376Z,16.76
2019-05-22T06:25:59.416Z,16.66
2019-05-22T06:28:37.915Z,16.60
2019-05-22T06:31:13.370Z,16.54
2019-05-22T06:33:45.101Z,16.63
2019-05-22T06:36:17.723Z,16.67
2019-05-22T06:38:55.804Z,16.57
2019-05-22T06:41:29.509Z,16.51
2019-05-22T06:44:16.807Z,16.51
2019-05-22T06:46:49.834Z,16.55
2019-05-22T06:49:36.682Z,16.64
2019-05-22T06:52:08.841Z,16.65
2019-05-22T06:54:41.042Z,16.60
2019-05-22T06:57:18.364Z,16.56
2019-05-22T07:00:11.447Z,16.56
2019-05-22T07:02:26.132Z,16.62
2019-05-22T07:04:58.162Z,16.73
2019-05-22T07:07:40.441Z,16.72
2019-05-22T07:10:13.752Z,16.76
2019-05-22T07:12:50.175Z,17.00
2019-05-22T07:15:25.623Z,17.12
2019-05-22T07:17:58.153Z,17.45
2019-05-22T07:20:32.638Z,17.62
2019-05-22T07:23:06.265Z,17.74
2019-05-22T07:25:40.886Z,17.99
2019-05-22T07:28:13.193Z,17.89
2019-05-22T07:30:46.159Z,17.90
2019-05-22T07:33:22.113Z,17.63
2019-05-22T07:36:09.301Z,17.55
2019-05-22T07:38:29.694Z,17.72
2019-05-22T07:41:01.318Z,17.78
2019-05-22T07:43:33.954Z,17.80
2019-05-22T07:46:06.432Z,17.68
2019-05-22T07:48:38.222Z,17.71
2019-05-22T07:51:10.253Z,17.87
2019-05-22T07:53:43.544Z,17.93
2019-05-22T07:56:17.154Z,18.06
2019-05-22T07:58:51.222Z,18.12
2019-05-22T08:01:27.095Z,18.24
2019-05-22T08:04:02.405Z,18.28
2019-05-22T08:06:34.345Z,18.06
2019-05-22T08:09:10.152Z,18.28
2019-05-22T08:11:42.513Z,18.26
2019-05-22T08:14:14.299Z,18.25
2019-05-22T08:16:47.703Z,18.08
2019-05-22T08:19:20.993Z,18.06
2019-05-22T08:22:06.064Z,18.17
2019-05-22T08:24:28.768Z,18.08
2019-05-22T08:27:00.656Z,18.45
2019-05-22T08:29:48.842Z,18.63
2019-05-22T08:32:22.586Z,19.17
2019-05-22T08:34:55.408Z,19.01
2019-05-22T08:37:33.543Z,18.88
2019-05-22T08:40:09.297Z,18.80
2019-05-22T08:42:48.262Z,18.76
2019-05-22T08:45:23.677Z,18.58
2019-05-22T08:47:55.315Z,18.61
2019-05-22T08:50:34.967Z,18.92
2019-05-22T08:53:08.091Z,19.18
2019-05-22T08:55:42.115Z,19.43
2019-05-22T08:58:15.733Z,19.34
2019-05-22T09:00:48.112Z,19.46
2019-05-22T09:03:19.550Z,19.90
2019-05-22T09:05:52.159Z,19.93
2019-05-22T09:08:24.421Z,19.66
2019-05-22T09:10:58.645Z,19.60
2019-05-22T09:13:32.064Z,19.25
2019-05-22T09:16:03.895Z,19.28
2019-05-22T09:18:36.160Z,19.01
2019-05-22T09:21:08.045Z,19.02
2019-05-22T09:23:46.747Z,19.18
2019-05-22T09:26:19.074Z,19.24
2019-05-22T09:28:51.003Z,18.96
2019-05-22T09:31:24.101Z,18.68
2019-05-22T09:33:55.954Z,18.74
2019-05-22T09:36:28.736Z,18.64
2019-05-22T09:39:08.157Z,18.66
2019-05-22T09:41:39.648Z,18.65
2019-05-22T09:44:15.028Z,18.68
2019-05-22T09:46:45.020Z,18.46
2019-05-22T09:49:16.981Z,18.28
2019-05-22T09:51:56.412Z,18.08
2019-05-22T09:54:28.640Z,18.24
2019-05-22T09:57:05.714Z,18.20
2019-05-22T09:59:38.321Z,18.18
2019-05-22T10:02:11.857Z,18.09
2019-05-22T10:05:07.657Z,17.98
2019-05-22T10:07:57.920Z,17.90
2019-05-22T10:10:17.041Z,17.77
2019-05-22T10:12:52.556Z,17.82
2019-05-22T10:15:25.671Z,17.71
2019-05-22T10:17:58.543Z,17.70
2019-05-22T10:20:30.658Z,17.73
2019-05-22T10:25:44.753Z,17.65
2019-05-22T10:28:17.135Z,17.52
2019-05-22T10:30:49.720Z,17.42
2019-05-22T10:33:21.410Z,17.29
2019-05-22T10:35:53.335Z,17.30
2019-05-22T10:38:25.416Z,17.24
2019-05-22T10:40:59.376Z,17.41
2019-05-22T10:43:30.468Z,17.26
2019-05-22T10:46:04.757Z,17.17
2019-05-22T10:48:40.208Z,17.19
2019-05-22T10:51:11.149Z,17.06
2019-05-22T10:53:44.441Z,17.04
2019-05-22T10:56:16.125Z,16.90
2019-05-22T10:58:49.542Z,16.72
2019-05-22T11:01:23.370Z,16.67
2019-05-22T11:03:57.240Z,16.59
2019-05-22T11:06:28.938Z,16.48
2019-05-22T11:09:00.694Z,16.41
2019-05-22T11:11:36.493Z,16.34
2019-05-22T11:14:12.352Z,16.30
2019-05-22T11:16:44.108Z,16.31
2019-05-22T11:19:16.289Z,16.17
2019-05-22T11:21:48.141Z,16.02
2019-05-22T11:24:19.853Z,16.02
2019-05-22T11:26:51.756Z,15.93
2019-05-22T11:29:24.284Z,16.00
2019-05-22T11:31:56.974Z,15.95
2019-05-22T11:34:29.727Z,15.95
2019-05-22T11:37:01.917Z,15.59
2019-05-22T11:39:39.800Z,15.89
2019-05-22T11:42:11.131Z,15.88
2019-05-22T11:44:42.690Z,15.89
2019-05-22T11:47:17.358Z,15.93
2019-05-22T11:49:51.314Z,15.87
2019-05-22T11:52:24.411Z,15.92
2019-05-22T11:54:55.857Z,15.90
2019-05-22T11:57:27.838Z,15.95
2019-05-22T11:59:59.994Z,15.95
2019-05-22T12:02:33.791Z,15.98
2019-05-22T12:05:18.506Z,16.04
2019-05-22T12:07:50.342Z,16.16
2019-05-22T12:10:22.653Z,16.17
2019-05-22T12:12:55.725Z,16.06
2019-05-22T12:15:32.098Z,16.10
2019-05-22T12:18:05.926Z,16.23
2019-05-22T12:20:37.832Z,16.32
2019-05-22T12:23:09.537Z,16.26
2019-05-22T12:25:41.628Z,16.19
2019-05-22T12:28:13.372Z,16.20
2019-05-22T12:30:46.537Z,16.41
2019-05-22T12:33:18.426Z,16.49
2019-05-22T12:35:51.601Z,16.70
2019-05-22T12:38:26.883Z,16.85
2019-05-22T12:40:58.114Z,16.92
2019-05-22T12:43:31.942Z,16.99
2019-05-22T12:46:03.820Z,17.08
2019-05-22T12:48:36.800Z,17.24
2019-05-22T12:51:10.689Z,17.14
2019-05-22T12:53:45.398Z,17.61
2019-05-22T12:56:18.754Z,18.23
2019-05-22T12:58:50.921Z,19.24
2019-05-22T13:01:25.339Z,20.75
2019-05-22T13:03:57.996Z,21.78
2019-05-22T13:06:32.453Z,21.76
2019-05-22T13:09:09.795Z,20.87
2019-05-22T13:12:02.086Z,20.22
2019-05-22T13:14:36.047Z,19.43
2019-05-22T13:17:12.799Z,20.14
2019-05-22T13:19:46.804Z,20.07
2019-05-22T13:22:22.891Z,19.74
2019-05-22T13:24:55.284Z,19.62
2019-05-22T13:27:29.359Z,19.67
2019-05-22T13:30:01.570Z,18.65
2019-05-22T13:32:36.838Z,18.71
2019-05-22T13:35:12.081Z,18.29
2019-05-22T13:37:48.844Z,18.23
2019-05-22T13:40:27.526Z,18.19
2019-05-22T13:42:57.640Z,18.08
2019-05-22T13:45:33.675Z,18.48
2019-05-22T13:48:06.587Z,19.69
2019-05-22T13:50:38.701Z,21.92
2019-05-22T13:53:12.812Z,22.90
2019-05-22T13:55:46.443Z,23.64
2019-05-22T13:58:20.602Z,23.45
2019-05-22T14:00:54.067Z,22.28
2019-05-22T14:03:25.806Z,21.32
2019-05-22T14:05:58.458Z,20.54
2019-05-22T14:08:30.180Z,21.08
2019-05-22T14:11:04.282Z,21.80
2019-05-22T14:13:36.002Z,22.13
2019-05-22T14:16:10.314Z,21.57
2019-05-22T14:18:45.185Z,21.68
2019-05-22T14:21:18.980Z,22.12
2019-05-22T14:23:52.234Z,21.39
2019-05-22T14:26:25.774Z,20.57
2019-05-22T14:28:59.399Z,20.28
2019-05-22T14:31:31.065Z,19.65
2019-05-22T14:34:03.404Z,19.65
2019-05-22T14:36:35.974Z,19.40
2019-05-22T14:39:08.446Z,19.38
2019-05-22T14:41:39.830Z,19.14
2019-05-22T14:44:11.300Z,19.27
2019-05-22T14:46:43.655Z,19.54
2019-05-22T14:49:20.694Z,21.37
2019-05-22T14:51:56.930Z,21.41
2019-05-22T14:54:29.595Z,22.06
2019-05-22T14:57:01.925Z,23.26
2019-05-22T14:59:33.766Z,23.49
2019-05-22T15:02:06.345Z,22.37
2019-05-22T15:04:37.746Z,22.17
2019-05-22T15:07:10.128Z,21.36
2019-05-22T15:09:41.603Z,20.88
2019-05-22T15:12:13.452Z,20.99
2019-05-22T15:14:47.088Z,20.91
2019-05-22T15:17:31.940Z,20.70
2019-05-22T15:19:54.186Z,20.30
2019-05-22T15:22:27.606Z,20.10
2019-05-22T15:24:59.766Z,19.78
2019-05-22T15:27:34.105Z,19.75
2019-05-22T15:30:10.679Z,19.70
2019-05-22T15:32:42.348Z,19.61
2019-05-22T15:35:15.106Z,19.22
2019-05-22T15:37:50.959Z,18.91
2019-05-22T15:40:24.394Z,18.79
2019-05-22T15:42:56.893Z,18.66
2019-05-22T15:45:30.440Z,18.54
2019-05-22T15:48:06.845Z,18.37
2019-05-22T15:50:39.115Z,18.37
2019-05-22T15:53:15.192Z,18.32
2019-05-22T15:55:48.973Z,18.32
2019-05-22T15:58:20.644Z,18.28
2019-05-22T16:00:52.979Z,18.23
2019-05-22T16:03:27.452Z,18.33
2019-05-22T16:05:59.851Z,18.19
2019-05-22T16:08:31.988Z,18.19
2019-05-22T16:11:06.887Z,18.22
2019-05-22T16:13:39.479Z,18.22
2019-05-22T16:16:13.175Z,18.12
2019-05-22T16:18:50.320Z,18.02
2019-05-22T16:21:24.950Z,17.93
2019-05-22T16:23:59.256Z,17.79
2019-05-22T16:26:31.810Z,17.74
2019-05-22T16:29:04.589Z,17.62
2019-05-22T16:31:40.457Z,17.57
2019-05-22T16:34:12.969Z,17.49
2019-05-22T16:36:45.869Z,17.51
2019-05-22T16:39:17.842Z,17.47
2019-05-22T16:41:49.821Z,17.41
2019-05-22T16:44:21.396Z,17.35
2019-05-22T16:46:53.603Z,17.38
2019-05-22T16:49:28.103Z,17.33
2019-05-22T16:52:02.335Z,17.29
2019-05-22T16:54:34.585Z,17.28
2019-05-22T16:57:06.822Z,17.25
2019-05-22T16:59:41.387Z,17.24
2019-05-22T17:02:15.462Z,17.19
2019-05-22T17:04:54.085Z,17.15
2019-05-22T17:07:28.194Z,17.06
2019-05-22T17:10:00.145Z,16.97
2019-05-22T17:12:33.221Z,16.84
2019-05-22T17:15:08.972Z,16.81
2019-05-22T17:17:40.872Z,16.76
2019-05-22T17:20:13.370Z,16.68
2019-05-22T17:22:48.063Z,16.59
2019-05-22T17:25:21.111Z,16.45
2019-05-22T17:27:52.806Z,16.34
2019-05-22T17:30:26.849Z,16.28
2019-05-22T17:32:59.835Z,16.22
2019-05-22T17:35:32.489Z,16.20
2019-05-22T17:38:09.488Z,16.12
2019-05-22T17:40:41.814Z,16.10
2019-05-22T17:43:14.682Z,16.04
2019-05-22T17:45:47.952Z,16.04
2019-05-22T17:48:20.107Z,16.02
2019-05-22T17:50:53.450Z,16.00
2019-05-22T17:53:26.059Z,15.97
2019-05-22T17:55:58.053Z,16.00
2019-05-22T17:58:30.444Z,15.92
2019-05-22T18:01:06.529Z,15.90
2019-05-22T18:03:39.158Z,15.94
2019-05-22T18:06:10.886Z,15.91
2019-05-22T18:08:42.577Z,15.89
2019-05-22T18:11:18.023Z,15.89
2019-05-22T18:13:56.758Z,15.85
2019-05-22T18:16:31.383Z,15.79
2019-05-22T18:19:04.982Z,15.77
2019-05-22T18:21:37.504Z,15.88
2019-05-22T18:24:11.440Z,15.82
2019-05-22T18:26:45.824Z,15.75
2019-05-22T18:29:17.548Z,15.78
2019-05-22T18:31:50.773Z,15.73
2019-05-22T18:34:24.723Z,15.67
2019-05-22T18:36:57.058Z,15.62
2019-05-22T18:39:30.323Z,15.65
2019-05-22T18:42:02.289Z,15.58
2019-05-22T18:44:35.679Z,15.61
2019-05-22T18:47:08.974Z,15.59
2019-05-22T18:49:40.957Z,15.52
2019-05-22T18:52:12.992Z,15.49
2019-05-22T18:54:45.292Z,15.42
2019-05-22T18:57:17.860Z,15.44
2019-05-22T18:59:50.766Z,15.49
2019-05-22T19:02:24.546Z,15.45
2019-05-22T19:04:56.658Z,15.43
2019-05-22T19:07:28.578Z,15.41
2019-05-22T19:10:00.761Z,15.40
2019-05-22T19:12:37.043Z,15.31
2019-05-22T19:15:10.947Z,15.23
2019-05-22T19:17:42.648Z,15.20
2019-05-22T19:20:15.878Z,15.20
2019-05-22T19:22:59.022Z,15.11
2019-05-22T19:25:23.491Z,15.07
2019-05-22T19:27:55.990Z,15.07
2019-05-22T19:30:29.329Z,15.13
2019-05-22T19:33:01.325Z,15.22
2019-05-22T19:35:33.091Z,15.20
2019-05-22T19:38:06.487Z,15.14
2019-05-22T19:40:38.113Z,15.13
2019-05-22T19:43:11.558Z,15.05
2019-05-22T19:45:43.233Z,15.11
2019-05-22T19:48:15.777Z,15.05
2019-05-22T19:50:50.285Z,15.04
2019-05-22T19:53:23.452Z,15.05
2019-05-22T19:55:55.160Z,15.00
2019-05-22T19:58:30.863Z,14.98
2019-05-22T20:01:06.033Z,14.95
2019-05-22T20:03:40.170Z,14.92
2019-05-22T20:06:20.838Z,14.92
2019-05-22T20:09:00.459Z,15.02
2019-05-22T20:11:36.022Z,15.08
2019-05-22T20:14:09.307Z,15.17
2019-05-22T20:16:46.122Z,15.20
2019-05-22T20:19:19.627Z,15.25
2019-05-22T20:21:54.300Z,15.24
2019-05-22T20:24:32.866Z,15.27
2019-05-22T20:27:10.095Z,15.25
2019-05-22T20:29:41.899Z,15.24
2019-05-22T20:32:15.807Z,15.24
2019-05-22T20:34:49.615Z,15.21
2019-05-22T20:37:21.584Z,15.22
2019-05-22T20:39:53.520Z,15.21
2019-05-22T20:42:25.796Z,15.22
2019-05-22T20:44:58.002Z,15.20
2019-05-22T20:47:31.452Z,15.19
2019-05-22T20:50:03.594Z,15.23
2019-05-22T20:52:35.798Z,15.16
2019-05-22T20:55:09.729Z,15.13
2019-05-22T20:57:43.921Z,15.14
2019-05-22T21:00:16.422Z,15.10
2019-05-22T21:02:48.765Z,15.07
2019-05-22T21:05:23.299Z,15.03
2019-05-22T21:07:59.575Z,14.98
2019-05-22T21:10:34.473Z,14.91
2019-05-22T21:13:08.627Z,14.87
2019-05-22T21:15:42.726Z,14.79
2019-05-22T21:18:14.612Z,14.69
2019-05-22T21:20:54.628Z,14.62
2019-05-22T21:23:22.205Z,14.56
2019-05-22T21:25:54.063Z,14.48
2019-05-22T21:28:28.286Z,14.42
2019-05-22T21:31:02.123Z,14.34
2019-05-22T21:33:33.955Z,14.25
2019-05-22T21:36:08.699Z,14.33
2019-05-22T21:38:41.105Z,14.25
2019-05-22T21:41:13.334Z,14.24
2019-05-22T21:43:45.878Z,14.22
2019-05-22T21:46:17.959Z,14.14
2019-05-22T21:48:51.375Z,14.14
2019-05-22T21:51:23.716Z,14.13
2019-05-22T21:53:56.701Z,14.19
2019-05-22T21:56:28.794Z,14.18
2019-05-22T21:59:01.385Z,14.17
2019-05-22T22:01:35.990Z,14.19
2019-05-22T22:04:12.187Z,14.16
2019-05-22T22:06:44.230Z,14.17
2019-05-22T22:09:17.424Z,14.18
2019-05-22T22:11:50.208Z,14.16
2019-05-22T22:14:24.171Z,14.17
2019-05-22T22:16:56.707Z,14.16
2019-05-22T22:19:30.503Z,14.17
2019-05-22T22:22:03.901Z,14.13
2019-05-22T22:24:36.076Z,14.09
2019-05-22T22:27:08.097Z,14.03
2019-05-22T22:29:42.166Z,14.07
2019-05-22T22:32:15.944Z,13.98
2019-05-22T22:34:50.531Z,13.87
2019-05-22T22:37:23.891Z,13.85
2019-05-22T22:39:57.915Z,13.85
2019-05-22T22:42:31.767Z,13.79
2019-05-22T22:45:05.982Z,13.80
2019-05-22T22:47:38.715Z,13.80
2019-05-22T22:50:11.586Z,13.82
2019-05-22T22:52:45.433Z,13.79
2019-05-22T22:55:19.297Z,13.72
2019-05-22T22:57:51.636Z,13.82
2019-05-22T23:00:25.459Z,13.82
2019-05-22T23:02:57.365Z,13.81
2019-05-22T23:05:29.248Z,13.79
2019-05-22T23:08:01.267Z,13.84
2019-05-22T23:10:33.446Z,13.92
2019-05-22T23:13:07.266Z,13.95
2019-05-22T23:15:40.488Z,13.96
2019-05-22T23:18:15.890Z,13.98
2019-05-22T23:20:46.488Z,14.02
2019-05-22T23:23:17.670Z,14.10
2019-05-22T23:25:49.702Z,14.08
2019-05-22T23:28:34.019Z,14.03
2019-05-22T23:30:57.062Z,14.02
2019-05-22T23:33:30.971Z,14.06
2019-05-22T23:36:02.917Z,14.06
2019-05-22T23:38:34.875Z,14.09
2019-05-22T23:41:09.191Z,14.13
2019-05-22T23:43:42.542Z,14.17
2019-05-22T23:46:17.128Z,14.16
2019-05-22T23:48:48.771Z,14.17
2019-05-22T23:51:20.741Z,14.16
2019-05-22T23:53:54.247Z,14.15
2019-05-22T23:56:26.721Z,14.14
2019-05-22T23:58:58.883Z,14.15
